Sadrinsk, Russia
Current Conditions -  °F | °C
As of 3:30 AM on Wednesday 28 Jan 2015 (Local Time) from USCC Reporting Station
Clear Clear  
Wind Chill:   Ceiling: Unl
Heat Index: 16°   Visibility: 6mi
Dew Point: -17°   Wind: 11mph
Humidity: 23%   Direction: 220°SW
Pressure: 30.42"   Gusts: NA
Location:  56.07°N, 63.65°E
Report Text: USCC 272230Z 22005MPS CAVOK M09/M27 Q1030 27000060 NOSIG RMKQFE752
Loading
Personal Weather Stations






























Interactive Weather Map New forecast layout! Learn more

10-Day Weather Forecast

Advertisements
Track Severe Weather on mobile